createdAt,value
2019-03-30T00:00:46.845Z,101831.20
2019-03-30T00:03:19.478Z,101826.41
2019-03-30T00:05:52.376Z,101833.73
2019-03-30T00:08:24.427Z,101818.94
2019-03-30T00:10:56.842Z,101821.31
2019-03-30T00:13:28.894Z,101820.56
2019-03-30T00:16:02.754Z,101817.28
2019-03-30T00:18:34.922Z,101816.80
2019-03-30T00:21:07.112Z,101812.80
2019-03-30T00:23:39.591Z,101815.28
2019-03-30T00:26:11.679Z,101812.92
2019-03-30T00:28:44.284Z,101812.66
2019-03-30T00:31:16.389Z,101800.66
2019-03-30T00:33:48.501Z,101798.00
2019-03-30T00:36:20.622Z,101797.51
2019-03-30T00:38:52.738Z,101802.57
2019-03-30T00:41:25.232Z,101801.75
2019-03-30T00:43:58.244Z,101795.27
2019-03-30T00:46:30.355Z,101791.70
2019-03-30T00:49:02.864Z,101789.92
2019-03-30T00:51:34.983Z,101785.95
2019-03-30T00:54:07.369Z,101779.37
2019-03-30T00:56:39.819Z,101774.65
2019-03-30T00:59:11.961Z,101783.27
2019-03-30T01:01:44.144Z,101773.19
2019-03-30T01:04:16.607Z,101774.84
2019-03-30T01:06:48.708Z,101774.73
2019-03-30T01:09:21.289Z,101776.78
2019-03-30T01:11:53.834Z,101775.81
2019-03-30T01:14:26.437Z,101770.45
2019-03-30T01:16:58.526Z,101771.27
2019-03-30T01:19:30.943Z,101768.68
2019-03-30T01:22:04.253Z,101765.17
2019-03-30T01:24:36.358Z,101765.89
2019-03-30T01:27:08.848Z,101756.72
2019-03-30T01:29:41.879Z,101759.25
2019-03-30T01:32:14.363Z,101757.69
2019-03-30T01:34:46.415Z,101757.06
2019-03-30T01:37:18.509Z,101750.91
2019-03-30T01:39:50.656Z,101752.27
2019-03-30T01:42:22.860Z,101749.27
2019-03-30T01:44:55.343Z,101738.71
2019-03-30T01:47:29.606Z,101742.45
2019-03-30T01:50:01.689Z,101736.03
2019-03-30T01:52:34.206Z,101730.49
2019-03-30T01:55:06.778Z,101727.09
2019-03-30T01:57:39.236Z,101721.41
2019-03-30T02:00:12.959Z,101714.36
2019-03-30T02:02:44.992Z,101717.43
2019-03-30T02:05:17.249Z,101716.08
2019-03-30T02:07:49.316Z,101714.28
2019-03-30T02:10:45.259Z,101705.67
2019-03-30T02:13:17.914Z,101702.93
2019-03-30T02:15:49.960Z,101697.63
2019-03-30T02:18:23.949Z,101698.53
2019-03-30T02:20:56.441Z,101701.28
2019-03-30T02:23:28.560Z,101697.95
2019-03-30T02:26:01.020Z,101694.56
2019-03-30T02:28:33.890Z,101691.93
2019-03-30T02:31:06.372Z,101692.75
2019-03-30T02:33:38.420Z,101697.53
2019-03-30T02:36:11.064Z,101690.13
2019-03-30T02:38:43.152Z,101695.55
2019-03-30T02:41:15.631Z,101690.80
2019-03-30T02:43:48.312Z,101690.94
2019-03-30T02:46:20.502Z,101690.94
2019-03-30T02:48:53.465Z,101691.25
2019-03-30T02:51:26.460Z,101694.83
2019-03-30T02:54:00.518Z,101690.94
2019-03-30T02:56:32.915Z,101690.94
2019-03-30T02:59:05.336Z,101688.06
2019-03-30T03:01:37.372Z,101681.84
2019-03-30T03:04:09.853Z,101688.32
2019-03-30T03:06:42.449Z,101677.51
2019-03-30T03:09:14.892Z,101678.08
2019-03-30T03:11:47.302Z,101669.80
2019-03-30T03:14:19.425Z,101673.91
2019-03-30T03:16:51.472Z,101671.32
2019-03-30T03:19:23.599Z,101667.97
2019-03-30T03:21:55.646Z,101663.95
2019-03-30T03:24:27.726Z,101661.21
2019-03-30T03:26:59.818Z,101656.84
2019-03-30T03:29:31.918Z,101656.41
2019-03-30T03:32:03.957Z,101661.78
2019-03-30T03:34:35.966Z,101664.18
2019-03-30T03:37:08.031Z,101664.43
2019-03-30T03:39:40.120Z,101660.52
2019-03-30T03:42:12.180Z,101657.86
2019-03-30T03:44:44.748Z,101655.74
2019-03-30T03:47:17.207Z,101648.35
2019-03-30T03:49:49.251Z,101648.70
2019-03-30T03:52:22.528Z,101649.55
2019-03-30T03:54:56.427Z,101643.27
2019-03-30T03:57:31.520Z,101640.33
2019-03-30T04:00:05.532Z,101634.55
2019-03-30T04:02:39.868Z,101636.19
2019-03-30T04:05:12.695Z,101638.01
2019-03-30T04:07:46.269Z,101630.62
2019-03-30T04:10:18.347Z,101633.66
2019-03-30T04:12:51.810Z,101630.14
2019-03-30T04:15:28.253Z,101628.41
2019-03-30T04:18:02.592Z,101625.34
2019-03-30T04:20:35.888Z,101626.23
2019-03-30T04:23:12.166Z,101626.92
2019-03-30T04:25:44.914Z,101622.94
2019-03-30T04:28:17.579Z,101617.19
2019-03-30T04:30:50.515Z,101605.44
2019-03-30T04:33:23.660Z,101616.13
2019-03-30T04:35:55.726Z,101608.38
2019-03-30T04:38:28.299Z,101607.86
2019-03-30T04:41:00.449Z,101612.05
2019-03-30T04:43:32.493Z,101612.05
2019-03-30T04:46:04.624Z,101606.27
2019-03-30T04:48:36.673Z,101603.41
2019-03-30T04:51:08.750Z,101600.28
2019-03-30T04:53:40.837Z,101599.70
2019-03-30T04:56:13.418Z,101585.95
2019-03-30T04:58:46.161Z,101592.31
2019-03-30T05:01:18.262Z,101595.31
2019-03-30T05:03:51.117Z,101596.64
2019-03-30T05:06:23.177Z,101600.05
2019-03-30T05:08:55.307Z,101597.12
2019-03-30T05:11:27.811Z,101593.37
2019-03-30T05:14:00.184Z,101595.96
2019-03-30T05:16:32.700Z,101594.46
2019-03-30T05:19:04.757Z,101593.78
2019-03-30T05:21:37.218Z,101590.89
2019-03-30T05:24:09.901Z,101594.36
2019-03-30T05:26:42.878Z,101593.06
2019-03-30T05:29:14.970Z,101594.94
2019-03-30T05:31:47.050Z,101585.41
2019-03-30T05:34:19.170Z,101590.78
2019-03-30T05:36:51.635Z,101587.86
2019-03-30T05:39:23.854Z,101592.18
2019-03-30T05:41:55.970Z,101593.37
2019-03-30T05:44:27.979Z,101587.34
2019-03-30T05:47:00.207Z,101595.41
2019-03-30T05:49:32.240Z,101599.60
2019-03-30T05:52:04.301Z,101590.17
2019-03-30T05:54:36.399Z,101592.62
2019-03-30T05:57:08.410Z,101589.55
2019-03-30T05:59:40.694Z,101583.02
2019-03-30T06:02:13.415Z,101581.41
2019-03-30T06:04:45.438Z,101582.50
2019-03-30T06:07:17.567Z,101586.35
2019-03-30T06:09:50.128Z,101582.45
2019-03-30T06:12:22.234Z,101582.45
2019-03-30T06:14:54.295Z,101588.23
2019-03-30T06:17:26.787Z,101587.61
2019-03-30T06:19:59.897Z,101589.03
2019-03-30T06:22:40.155Z,101593.02
2019-03-30T06:25:07.406Z,101590.73
2019-03-30T06:27:40.706Z,101580.98
2019-03-30T06:30:24.389Z,101582.93
2019-03-30T06:32:56.894Z,101581.44
2019-03-30T06:35:29.325Z,101579.18
2019-03-30T06:38:02.292Z,101569.50
2019-03-30T06:40:35.191Z,101571.53
2019-03-30T06:43:07.943Z,101572.26
2019-03-30T06:45:41.092Z,101568.36
2019-03-30T06:48:13.569Z,101564.41
2019-03-30T06:50:46.007Z,101566.41
2019-03-30T06:53:19.001Z,101569.42
2019-03-30T06:55:51.082Z,101565.25
2019-03-30T06:58:23.697Z,101566.88
2019-03-30T07:00:56.293Z,101563.99
2019-03-30T07:03:28.679Z,101565.09
2019-03-30T07:06:03.429Z,101564.31
2019-03-30T07:08:35.959Z,101564.27
2019-03-30T07:11:20.538Z,101563.52
2019-03-30T07:13:44.525Z,101562.47
2019-03-30T07:16:17.296Z,101563.68
2019-03-30T07:18:51.140Z,101564.12
2019-03-30T07:21:23.681Z,101558.56
2019-03-30T07:23:56.561Z,101556.83
2019-03-30T07:26:29.477Z,101555.37
2019-03-30T07:29:01.925Z,101553.72
2019-03-30T07:31:34.085Z,101553.31
2019-03-30T07:34:06.582Z,101550.58
2019-03-30T07:36:39.490Z,101558.21
2019-03-30T07:39:11.942Z,101547.12
2019-03-30T07:41:44.832Z,101547.18
2019-03-30T07:44:17.965Z,101555.67
2019-03-30T07:46:50.473Z,101556.45
2019-03-30T07:49:22.624Z,101553.83
2019-03-30T07:51:55.520Z,101549.52
2019-03-30T07:54:27.993Z,101541.75
2019-03-30T07:57:06.259Z,101550.95
2019-03-30T07:59:34.849Z,101546.55
2019-03-30T08:02:07.059Z,101555.23
2019-03-30T08:04:39.594Z,101547.83
2019-03-30T08:07:12.013Z,101547.39
2019-03-30T08:09:44.351Z,101541.23
2019-03-30T08:12:16.859Z,101546.34
2019-03-30T08:14:48.956Z,101544.14
2019-03-30T08:17:21.484Z,101540.84
2019-03-30T08:19:53.474Z,101545.82
2019-03-30T08:22:25.552Z,101540.27
2019-03-30T08:24:58.308Z,101541.59
2019-03-30T08:27:31.490Z,101537.15
2019-03-30T08:30:03.643Z,101534.52
2019-03-30T08:32:36.220Z,101534.34
2019-03-30T08:35:10.099Z,101526.14
2019-03-30T08:37:42.578Z,101521.66
2019-03-30T08:40:15.375Z,101519.26
2019-03-30T08:42:47.478Z,101517.41
2019-03-30T08:45:19.677Z,101521.72
2019-03-30T08:47:52.532Z,101516.50
2019-03-30T08:50:24.769Z,101515.35
2019-03-30T08:52:57.762Z,101515.81
2019-03-30T08:55:30.920Z,101511.09
2019-03-30T08:58:04.726Z,101518.48
2019-03-30T09:00:44.837Z,101501.50
2019-03-30T09:03:17.003Z,101498.18
2019-03-30T09:05:50.092Z,101502.23
2019-03-30T09:08:22.155Z,101497.64
2019-03-30T09:10:54.259Z,101502.66
2019-03-30T09:13:27.238Z,101496.33
2019-03-30T09:15:59.645Z,101493.27
2019-03-30T09:18:31.804Z,101490.53
2019-03-30T09:21:04.067Z,101486.86
2019-03-30T09:23:37.010Z,101484.23
2019-03-30T09:26:09.919Z,101482.88
2019-03-30T09:28:42.334Z,101484.52
2019-03-30T09:31:15.111Z,101477.46
2019-03-30T09:33:47.942Z,101481.84
2019-03-30T09:36:20.631Z,101473.11
2019-03-30T09:38:53.225Z,101471.94
2019-03-30T09:41:25.856Z,101464.44
2019-03-30T09:43:58.071Z,101476.39
2019-03-30T09:46:33.569Z,101465.72
2019-03-30T09:49:06.066Z,101457.39
2019-03-30T09:51:38.734Z,101460.48
2019-03-30T09:54:23.195Z,101455.66
2019-03-30T09:56:46.149Z,101462.92
2019-03-30T09:59:18.286Z,101453.64
2019-03-30T10:01:50.388Z,101447.13
2019-03-30T10:04:23.316Z,101447.30
2019-03-30T10:06:55.415Z,101451.16
2019-03-30T10:09:27.774Z,101452.80
2019-03-30T10:12:00.920Z,101450.07
2019-03-30T10:14:33.617Z,101451.38
2019-03-30T10:17:05.793Z,101442.86
2019-03-30T10:19:38.348Z,101440.31
2019-03-30T10:22:10.477Z,101439.64
2019-03-30T10:24:42.882Z,101425.73
2019-03-30T10:27:16.101Z,101427.91
2019-03-30T10:29:48.214Z,101429.10
2019-03-30T10:32:21.070Z,101424.66
2019-03-30T10:34:53.415Z,101416.55
2019-03-30T10:37:25.698Z,101419.70
2019-03-30T10:39:58.512Z,101413.29
2019-03-30T10:42:30.959Z,101413.28
2019-03-30T10:45:03.217Z,101415.00
2019-03-30T10:47:37.078Z,101410.35
2019-03-30T10:50:10.226Z,101398.10
2019-03-30T10:52:42.915Z,101400.69
2019-03-30T10:55:15.760Z,101392.84
2019-03-30T10:57:49.504Z,101390.65
2019-03-30T11:00:39.194Z,101391.23
2019-03-30T11:03:11.810Z,101383.04
2019-03-30T11:05:44.399Z,101386.70
2019-03-30T11:08:17.763Z,101371.97
2019-03-30T11:10:50.273Z,101378.51
2019-03-30T11:13:22.839Z,101367.18
2019-03-30T11:15:55.385Z,101366.30
2019-03-30T11:18:27.562Z,101368.34
2019-03-30T11:21:00.556Z,101361.61
2019-03-30T11:23:33.242Z,101366.54
2019-03-30T11:26:05.916Z,101354.95
2019-03-30T11:28:38.794Z,101352.68
2019-03-30T11:31:10.986Z,101352.75
2019-03-30T11:33:43.104Z,101357.69
2019-03-30T11:36:18.462Z,101355.96
2019-03-30T11:38:49.026Z,101337.68
2019-03-30T11:41:24.712Z,101350.77
2019-03-30T11:43:55.563Z,101336.39
2019-03-30T11:46:34.585Z,101327.89
2019-03-30T11:49:07.874Z,101326.50
2019-03-30T11:51:41.801Z,101319.34
2019-03-30T11:54:14.194Z,101323.08
2019-03-30T11:56:46.840Z,101305.97
2019-03-30T11:59:19.686Z,101308.34
2019-03-30T12:01:51.777Z,101316.80
2019-03-30T12:04:24.261Z,101289.03
2019-03-30T12:06:56.916Z,101293.75
2019-03-30T12:09:29.383Z,101295.58
2019-03-30T12:12:02.393Z,101288.98
2019-03-30T12:14:34.600Z,101280.27
2019-03-30T12:17:07.041Z,101282.24
2019-03-30T12:19:39.321Z,101274.42
2019-03-30T12:22:11.757Z,101276.36
2019-03-30T12:24:44.772Z,101267.05
2019-03-30T12:27:17.688Z,101270.47
2019-03-30T12:29:50.295Z,101263.21
2019-03-30T12:32:23.645Z,101256.42
2019-03-30T12:34:56.148Z,101248.36
2019-03-30T12:37:28.645Z,101251.69
2019-03-30T12:40:00.887Z,101250.01
2019-03-30T12:42:33.446Z,101237.95
2019-03-30T12:45:05.883Z,101233.59
2019-03-30T12:47:38.452Z,101224.49
2019-03-30T12:50:11.010Z,101232.86
2019-03-30T12:52:43.497Z,101218.52
2019-03-30T12:55:15.933Z,101218.14
2019-03-30T12:57:48.014Z,101222.58
2019-03-30T13:00:20.322Z,101210.87
2019-03-30T13:02:52.942Z,101210.87
2019-03-30T13:05:25.390Z,101219.78
2019-03-30T13:07:57.879Z,101213.61
2019-03-30T13:10:30.419Z,101217.27
2019-03-30T13:13:04.810Z,101209.41
2019-03-30T13:15:36.996Z,101208.67
2019-03-30T13:18:09.141Z,101204.36
2019-03-30T13:20:41.264Z,101203.96
2019-03-30T13:23:13.284Z,101212.38
2019-03-30T13:25:45.810Z,101199.95
2019-03-30T13:28:18.794Z,101196.11
2019-03-30T13:30:51.955Z,101195.93
2019-03-30T13:33:24.400Z,101189.70
2019-03-30T13:35:56.871Z,101187.52
2019-03-30T13:38:29.365Z,101190.33
2019-03-30T13:41:02.210Z,101178.02
2019-03-30T13:43:34.344Z,101184.53
2019-03-30T13:46:06.352Z,101180.66
2019-03-30T13:48:38.409Z,101180.94
2019-03-30T13:51:10.571Z,101184.39
2019-03-30T13:53:42.818Z,101170.09
2019-03-30T13:56:17.490Z,101168.12
2019-03-30T13:58:49.063Z,101165.56
2019-03-30T14:01:21.652Z,101160.08
2019-03-30T14:03:54.531Z,101164.37
2019-03-30T14:06:27.053Z,101163.06
2019-03-30T14:08:59.830Z,101161.64
2019-03-30T14:11:32.377Z,101170.34
2019-03-30T14:14:04.959Z,101159.53
2019-03-30T14:16:37.049Z,101144.50
2019-03-30T14:19:09.125Z,101140.92
2019-03-30T14:21:41.293Z,101144.47
2019-03-30T14:24:14.238Z,101133.53
2019-03-30T14:26:46.403Z,101133.02
2019-03-30T14:29:18.547Z,101129.99
2019-03-30T14:31:50.700Z,101131.71
2019-03-30T14:34:23.280Z,101130.29
2019-03-30T14:36:56.064Z,101126.56
2019-03-30T14:39:28.176Z,101126.55
2019-03-30T14:42:00.799Z,101115.41
2019-03-30T14:44:33.412Z,101119.64
2019-03-30T14:47:06.103Z,101116.30
2019-03-30T14:49:38.598Z,101108.77
2019-03-30T14:52:10.802Z,101109.02
2019-03-30T14:54:52.552Z,101100.72
2019-03-30T14:57:16.980Z,101093.64
2019-03-30T14:59:49.438Z,101093.08
2019-03-30T15:02:21.583Z,101100.84
2019-03-30T15:04:53.656Z,101087.24
2019-03-30T15:07:25.858Z,101088.75
2019-03-30T15:09:57.960Z,101089.41
2019-03-30T15:12:30.021Z,101085.49
2019-03-30T15:15:02.520Z,101084.38
2019-03-30T15:17:34.617Z,101079.54
2019-03-30T15:20:07.189Z,101079.07
2019-03-30T15:22:39.767Z,101078.17
2019-03-30T15:25:13.449Z,101080.16
2019-03-30T15:27:45.934Z,101078.13
2019-03-30T15:30:18.336Z,101070.52
2019-03-30T15:32:51.328Z,101070.92
2019-03-30T15:35:23.957Z,101066.93
2019-03-30T15:37:56.425Z,101069.40
2019-03-30T15:40:28.964Z,101062.02
2019-03-30T15:43:01.219Z,101065.49
2019-03-30T15:45:33.596Z,101059.66
2019-03-30T15:48:05.759Z,101060.83
2019-03-30T15:50:37.980Z,101060.25
2019-03-30T15:53:10.523Z,101060.53
2019-03-30T15:55:43.239Z,101057.05
2019-03-30T15:58:15.327Z,101050.93
2019-03-30T16:00:47.821Z,101047.84
2019-03-30T16:03:19.884Z,101050.20
2019-03-30T16:05:52.032Z,101045.85
2019-03-30T16:08:24.281Z,101045.27
2019-03-30T16:10:57.146Z,101044.88
2019-03-30T16:13:29.713Z,101048.66
2019-03-30T16:16:01.829Z,101041.69
2019-03-30T16:18:34.243Z,101040.77
2019-03-30T16:21:06.342Z,101034.45
2019-03-30T16:23:38.918Z,101037.16
2019-03-30T16:26:11.881Z,101031.93
2019-03-30T16:28:43.980Z,101026.02
2019-03-30T16:31:16.486Z,101035.02
2019-03-30T16:33:48.918Z,101029.70
2019-03-30T16:36:21.545Z,101030.37
2019-03-30T16:38:54.350Z,101031.70
2019-03-30T16:41:26.411Z,101031.19
2019-03-30T16:43:58.996Z,101027.66
2019-03-30T16:46:31.587Z,101027.06
2019-03-30T16:49:03.686Z,101036.95
2019-03-30T16:51:35.833Z,101021.54
2019-03-30T16:54:08.088Z,101034.69
2019-03-30T16:56:40.195Z,101023.10
2019-03-30T16:59:13.918Z,101026.52
2019-03-30T17:01:46.552Z,101024.28
2019-03-30T17:04:18.949Z,101030.14
2019-03-30T17:06:51.155Z,101022.44
2019-03-30T17:09:23.851Z,101023.56
2019-03-30T17:11:56.241Z,101022.65
2019-03-30T17:14:28.801Z,101026.99
2019-03-30T17:17:01.490Z,101028.52
2019-03-30T17:19:34.124Z,101026.39
2019-03-30T17:22:06.260Z,101026.17
2019-03-30T17:24:38.729Z,101021.72
2019-03-30T17:27:11.261Z,101027.03
2019-03-30T17:29:43.325Z,101024.42
2019-03-30T17:32:15.898Z,101027.84
2019-03-30T17:34:48.023Z,101029.66
2019-03-30T17:37:20.457Z,101040.14
2019-03-30T17:39:52.601Z,101030.33
2019-03-30T17:42:24.706Z,101041.14
2019-03-30T17:44:56.894Z,101038.85
2019-03-30T17:47:29.433Z,101039.24
2019-03-30T17:50:02.008Z,101044.58
2019-03-30T17:52:34.101Z,101045.34
2019-03-30T17:55:06.234Z,101044.53
2019-03-30T17:57:38.303Z,101045.59
2019-03-30T18:00:15.469Z,101057.83
2019-03-30T18:02:47.596Z,101054.16
2019-03-30T18:05:19.776Z,101062.25
2019-03-30T18:07:52.217Z,101060.37
2019-03-30T18:10:24.398Z,101060.89
2019-03-30T18:12:57.015Z,101061.56
2019-03-30T18:15:29.108Z,101061.75
2019-03-30T18:18:04.486Z,101068.63
2019-03-30T18:20:36.550Z,101074.79
2019-03-30T18:23:08.988Z,101074.88
2019-03-30T18:25:41.268Z,101079.84
2019-03-30T18:28:26.563Z,101084.52
2019-03-30T18:30:47.223Z,101080.22
2019-03-30T18:33:19.808Z,101087.09
2019-03-30T18:35:52.582Z,101087.69
2019-03-30T18:38:24.834Z,101092.20
2019-03-30T18:40:56.979Z,101087.94
2019-03-30T18:43:29.790Z,101095.96
2019-03-30T18:46:02.308Z,101096.72
2019-03-30T18:48:34.449Z,101095.64
2019-03-30T18:51:07.042Z,101099.27
2019-03-30T18:53:39.471Z,101101.69
2019-03-30T18:56:11.635Z,101107.17
2019-03-30T18:58:45.616Z,101113.41
2019-03-30T19:01:17.670Z,101108.70
2019-03-30T19:03:49.840Z,101107.48
2019-03-30T19:06:22.719Z,101108.73
2019-03-30T19:08:55.567Z,101118.58
2019-03-30T19:11:27.799Z,101113.02
2019-03-30T19:13:59.863Z,101114.11
2019-03-30T19:16:31.965Z,101108.10
2019-03-30T19:19:05.412Z,101116.30
2019-03-30T19:21:37.567Z,101115.90
2019-03-30T19:24:09.638Z,101113.89
2019-03-30T19:26:42.499Z,101114.98
2019-03-30T19:29:15.006Z,101115.13
2019-03-30T19:31:48.524Z,101113.12
2019-03-30T19:34:20.711Z,101111.42
2019-03-30T19:36:52.840Z,101114.70
2019-03-30T19:39:24.984Z,101120.11
2019-03-30T19:41:57.066Z,101111.12
2019-03-30T19:44:29.592Z,101116.02
2019-03-30T19:47:01.839Z,101111.75
2019-03-30T19:49:34.798Z,101111.04
2019-03-30T19:52:06.895Z,101112.49
2019-03-30T19:54:39.504Z,101113.81
2019-03-30T19:57:11.717Z,101114.89
2019-03-30T19:59:43.810Z,101113.14
2019-03-30T20:02:17.530Z,101110.73
2019-03-30T20:04:50.026Z,101114.70
2019-03-30T20:07:22.472Z,101117.94
2019-03-30T20:09:54.678Z,101117.98
2019-03-30T20:12:27.211Z,101112.30
2019-03-30T20:14:59.844Z,101116.83
2019-03-30T20:17:32.108Z,101116.59
2019-03-30T20:20:04.415Z,101116.69
2019-03-30T20:22:37.308Z,101120.15
2019-03-30T20:25:11.025Z,101118.93
2019-03-30T20:27:43.226Z,101121.16
2019-03-30T20:30:16.924Z,101118.14
2019-03-30T20:32:49.282Z,101116.44
2019-03-30T20:35:21.548Z,101111.72
2019-03-30T20:37:53.808Z,101111.77
2019-03-30T20:40:26.370Z,101111.80
2019-03-30T20:42:58.973Z,101114.47
2019-03-30T20:45:31.199Z,101110.71
2019-03-30T20:48:03.963Z,101114.82
2019-03-30T20:50:36.165Z,101110.12
2019-03-30T20:53:08.373Z,101109.73
2019-03-30T20:55:40.610Z,101108.57
2019-03-30T20:58:13.188Z,101103.83
2019-03-30T21:00:46.251Z,101102.45
2019-03-30T21:03:18.474Z,101114.45
2019-03-30T21:05:51.196Z,101117.07
2019-03-30T21:08:23.837Z,101114.48
2019-03-30T21:10:56.043Z,101119.33
2019-03-30T21:13:28.271Z,101119.84
2019-03-30T21:16:01.417Z,101118.12
2019-03-30T21:18:33.526Z,101120.78
2019-03-30T21:21:08.978Z,101122.13
2019-03-30T21:23:39.991Z,101117.31
2019-03-30T21:26:12.507Z,101119.97
2019-03-30T21:28:44.825Z,101121.75
2019-03-30T21:31:17.376Z,101121.81
2019-03-30T21:33:49.988Z,101124.02
2019-03-30T21:36:23.255Z,101122.74
2019-03-30T21:38:55.467Z,101123.68
2019-03-30T21:41:28.694Z,101125.91
2019-03-30T21:44:00.896Z,101129.47
2019-03-30T21:46:33.273Z,101133.88
2019-03-30T21:49:05.731Z,101129.98
2019-03-30T21:51:37.921Z,101129.56
2019-03-30T21:54:10.875Z,101135.30
2019-03-30T21:56:43.631Z,101137.46
2019-03-30T21:59:16.030Z,101134.94
2019-03-30T22:01:48.247Z,101138.89
2019-03-30T22:04:20.447Z,101140.67
2019-03-30T22:06:53.814Z,101141.17
2019-03-30T22:09:26.152Z,101136.39
2019-03-30T22:11:58.442Z,101139.02
2019-03-30T22:14:30.625Z,101135.59
2019-03-30T22:17:02.834Z,101142.62
2019-03-30T22:19:41.797Z,101137.40
2019-03-30T22:22:14.252Z,101133.92
2019-03-30T22:24:46.394Z,101135.27
2019-03-30T22:27:18.877Z,101136.59
2019-03-30T22:29:51.516Z,101145.30
2019-03-30T22:32:24.119Z,101147.52
2019-03-30T22:34:56.348Z,101160.21
2019-03-30T22:37:28.533Z,101157.16
2019-03-30T22:40:01.781Z,101156.27
2019-03-30T22:42:34.024Z,101154.12
2019-03-30T22:45:06.437Z,101161.98
2019-03-30T22:47:39.858Z,101156.77
2019-03-30T22:50:13.007Z,101166.81
2019-03-30T22:52:45.443Z,101157.64
2019-03-30T22:55:17.566Z,101161.61
2019-03-30T22:57:50.646Z,101159.85
2019-03-30T23:00:45.770Z,101155.95
2019-03-30T23:03:18.128Z,101165.08
2019-03-30T23:05:50.432Z,101166.42
2019-03-30T23:08:23.159Z,101171.63
2019-03-30T23:10:55.852Z,101164.67
2019-03-30T23:13:27.921Z,101172.53
2019-03-30T23:16:00.660Z,101171.67
2019-03-30T23:18:32.919Z,101162.50
2019-03-30T23:21:05.058Z,101166.87
2019-03-30T23:23:37.270Z,101172.96
2019-03-30T23:26:09.394Z,101174.70
2019-03-30T23:28:41.627Z,101172.55
2019-03-30T23:31:14.259Z,101172.98
2019-03-30T23:33:46.444Z,101172.08
2019-03-30T23:36:18.503Z,101169.91
2019-03-30T23:38:51.586Z,101173.39
2019-03-30T23:41:23.690Z,101175.98
2019-03-30T23:43:56.260Z,101183.39
2019-03-30T23:46:29.145Z,101179.89
2019-03-30T23:49:01.265Z,101178.59
2019-03-30T23:51:33.918Z,101183.36
2019-03-30T23:54:08.043Z,101174.25
2019-03-30T23:56:40.541Z,101179.00
2019-03-30T23:59:12.656Z,101175.94
